sensor_id;sensor_type;location;lat;lon;timestamp;temperature;humidity
37944;DHT22;23767;42.024;23.086;2024-01-10T00:01:18;-2.70;99.90
37944;DHT22;23767;42.024;23.086;2024-01-10T00:03:44;-2.70;99.90
37944;DHT22;23767;42.024;23.086;2024-01-10T00:06:10;-2.70;99.90
37944;DHT22;23767;42.024;23.086;2024-01-10T00:08:37;-2.70;99.90
37944;DHT22;23767;42.024;23.086;2024-01-10T00:11:02;-2.70;99.90
37944;DHT22;23767;42.024;23.086;2024-01-10T00:13:30;-2.70;99.90
37944;DHT22;23767;42.024;23.086;2024-01-10T00:15:56;-2.60;99.90
37944;DHT22;23767;42.024;23.086;2024-01-10T00:18:24;-2.60;99.90
37944;DHT22;23767;42.024;23.086;2024-01-10T00:20:51;-2.50;99.90
37944;DHT22;23767;42.024;23.086;2024-01-10T00:23:19;-2.50;99.90
37944;DHT22;23767;42.024;23.086;2024-01-10T00:25:45;-2.40;99.90
37944;DHT22;23767;42.024;23.086;2024-01-10T00:28:11;-2.40;99.90
37944;DHT22;23767;42.024;23.086;2024-01-10T00:30:38;-2.40;99.90
37944;DHT22;23767;42.024;23.086;2024-01-10T00:33:04;-2.40;99.90
37944;DHT22;23767;42.024;23.086;2024-01-10T00:35:30;-2.30;99.90
37944;DHT22;23767;42.024;23.086;2024-01-10T00:37:55;-2.30;99.90
37944;DHT22;23767;42.024;23.086;2024-01-10T00:40:21;-2.30;99.90
37944;DHT22;23767;42.024;23.086;2024-01-10T00:42:47;-2.20;99.90
37944;DHT22;23767;42.024;23.086;2024-01-10T00:45:13;-2.40;99.90
37944;DHT22;23767;42.024;23.086;2024-01-10T00:47:38;-2.40;99.90
37944;DHT22;23767;42.024;23.086;2024-01-10T00:50:05;-2.40;99.90
37944;DHT22;23767;42.024;23.086;2024-01-10T00:52:31;-2.30;99.90
37944;DHT22;23767;42.024;23.086;2024-01-10T00:54:57;-2.20;99.90
37944;DHT22;23767;42.024;23.086;2024-01-10T00:57:22;-2.10;99.90
37944;DHT22;23767;42.024;23.086;2024-01-10T00:59:48;-2.10;99.90
37944;DHT22;23767;42.024;23.086;2024-01-10T01:02:14;-2.20;99.90
37944;DHT22;23767;42.024;23.086;2024-01-10T01:04:39;-2.20;99.90
37944;DHT22;23767;42.024;23.086;2024-01-10T01:07:05;-2.20;99.90
37944;DHT22;23767;42.024;23.086;2024-01-10T01:09:30;-2.20;99.90
37944;DHT22;23767;42.024;23.086;2024-01-10T01:11:56;-2.10;99.90
37944;DHT22;23767;42.024;23.086;2024-01-10T01:14:22;-2.10;99.90
37944;DHT22;23767;42.024;23.086;2024-01-10T01:16:47;-2.00;99.90
37944;DHT22;23767;42.024;23.086;2024-01-10T01:19:13;-2.10;99.90
37944;DHT22;23767;42.024;23.086;2024-01-10T01:21:39;-2.00;99.90
37944;DHT22;23767;42.024;23.086;2024-01-10T01:24:04;-2.00;99.90
37944;DHT22;23767;42.024;23.086;2024-01-10T01:26:30;-1.90;99.90
37944;DHT22;23767;42.024;23.086;2024-01-10T01:28:56;-2.00;99.90
37944;DHT22;23767;42.024;23.086;2024-01-10T01:31:21;-2.10;99.90
37944;DHT22;23767;42.024;23.086;2024-01-10T01:33:47;-2.10;99.90
37944;DHT22;23767;42.024;23.086;2024-01-10T01:36:13;-2.20;99.90
37944;DHT22;23767;42.024;23.086;2024-01-10T01:38:38;-2.20;99.90
37944;DHT22;23767;42.024;23.086;2024-01-10T01:41:04;-2.20;99.90
37944;DHT22;23767;42.024;23.086;2024-01-10T01:43:32;-2.20;99.90
37944;DHT22;23767;42.024;23.086;2024-01-10T01:45:57;-2.10;99.90
37944;DHT22;23767;42.024;23.086;2024-01-10T01:48:24;-2.20;99.90
37944;DHT22;23767;42.024;23.086;2024-01-10T01:50:57;-2.10;99.90
37944;DHT22;23767;42.024;23.086;2024-01-10T01:53:25;-2.10;99.90
37944;DHT22;23767;42.024;23.086;2024-01-10T01:55:52;-2.20;99.90
37944;DHT22;23767;42.024;23.086;2024-01-10T01:58:19;-2.30;99.90
37944;DHT22;23767;42.024;23.086;2024-01-10T02:00:46;-2.40;99.90
37944;DHT22;23767;42.024;23.086;2024-01-10T02:03:12;-2.30;99.90
37944;DHT22;23767;42.024;23.086;2024-01-10T02:05:39;-2.50;99.90
37944;DHT22;23767;42.024;23.086;2024-01-10T02:08:05;-2.50;99.90
37944;DHT22;23767;42.024;23.086;2024-01-10T02:10:31;-2.50;99.90
37944;DHT22;23767;42.024;23.086;2024-01-10T02:12:56;-2.50;99.90
37944;DHT22;23767;42.024;23.086;2024-01-10T02:15:23;-2.50;99.90
37944;DHT22;23767;42.024;23.086;2024-01-10T02:17:49;-2.40;99.90
37944;DHT22;23767;42.024;23.086;2024-01-10T02:20:16;-2.40;99.90
37944;DHT22;23767;42.024;23.086;2024-01-10T02:22:46;-2.50;99.90
37944;DHT22;23767;42.024;23.086;2024-01-10T02:25:13;-2.50;99.90
37944;DHT22;23767;42.024;23.086;2024-01-10T02:27:40;-2.50;99.90
37944;DHT22;23767;42.024;23.086;2024-01-10T02:30:07;-2.50;99.90
37944;DHT22;23767;42.024;23.086;2024-01-10T02:32:34;-2.40;99.90
37944;DHT22;23767;42.024;23.086;2024-01-10T02:35:00;-2.30;99.90
37944;DHT22;23767;42.024;23.086;2024-01-10T02:37:26;-2.50;99.90
37944;DHT22;23767;42.024;23.086;2024-01-10T02:39:55;-2.50;99.90
37944;DHT22;23767;42.024;23.086;2024-01-10T02:42:21;-2.40;99.90
37944;DHT22;23767;42.024;23.086;2024-01-10T02:44:46;-2.30;99.90
37944;DHT22;23767;42.024;23.086;2024-01-10T02:47:12;-2.30;99.90
37944;DHT22;23767;42.024;23.086;2024-01-10T02:49:38;-2.40;99.90
37944;DHT22;23767;42.024;23.086;2024-01-10T02:52:04;-2.30;99.90
37944;DHT22;23767;42.024;23.086;2024-01-10T02:54:30;-2.30;99.90
37944;DHT22;23767;42.024;23.086;2024-01-10T02:56:56;-2.30;99.90
37944;DHT22;23767;42.024;23.086;2024-01-10T02:59:22;-2.30;99.90
37944;DHT22;23767;42.024;23.086;2024-01-10T03:01:47;-2.30;99.90
37944;DHT22;23767;42.024;23.086;2024-01-10T03:04:13;-2.30;99.90
37944;DHT22;23767;42.024;23.086;2024-01-10T03:06:39;-2.30;99.90
37944;DHT22;23767;42.024;23.086;2024-01-10T03:09:05;-2.30;99.90
37944;DHT22;23767;42.024;23.086;2024-01-10T03:11:31;-2.30;99.90
37944;DHT22;23767;42.024;23.086;2024-01-10T03:14:08;-2.20;99.90
37944;DHT22;23767;42.024;23.086;2024-01-10T03:16:34;-2.30;99.90
37944;DHT22;23767;42.024;23.086;2024-01-10T03:19:00;-2.30;99.90
37944;DHT22;23767;42.024;23.086;2024-01-10T03:21:26;-2.30;99.90
37944;DHT22;23767;42.024;23.086;2024-01-10T03:23:58;-2.40;99.90
37944;DHT22;23767;42.024;23.086;2024-01-10T03:26:25;-2.30;99.90
37944;DHT22;23767;42.024;23.086;2024-01-10T03:28:51;-2.30;99.90
37944;DHT22;23767;42.024;23.086;2024-01-10T03:31:17;-2.30;99.90
37944;DHT22;23767;42.024;23.086;2024-01-10T03:33:42;-2.40;99.90
37944;DHT22;23767;42.024;23.086;2024-01-10T03:36:13;-2.40;99.90
37944;DHT22;23767;42.024;23.086;2024-01-10T03:38:42;-2.50;99.90
37944;DHT22;23767;42.024;23.086;2024-01-10T03:41:16;-2.60;99.90
37944;DHT22;23767;42.024;23.086;2024-01-10T03:43:42;-2.70;99.90
37944;DHT22;23767;42.024;23.086;2024-01-10T03:46:08;-2.60;99.90
37944;DHT22;23767;42.024;23.086;2024-01-10T03:48:34;-2.60;99.90
37944;DHT22;23767;42.024;23.086;2024-01-10T03:50:59;-2.70;99.90
37944;DHT22;23767;42.024;23.086;2024-01-10T03:53:25;-2.80;99.90
37944;DHT22;23767;42.024;23.086;2024-01-10T03:55:51;-2.80;99.90
37944;DHT22;23767;42.024;23.086;2024-01-10T03:58:16;-2.90;99.90
37944;DHT22;23767;42.024;23.086;2024-01-10T04:00:42;-2.80;99.90
37944;DHT22;23767;42.024;23.086;2024-01-10T04:03:08;-2.90;99.90
37944;DHT22;23767;42.024;23.086;2024-01-10T04:05:34;-2.90;99.90
37944;DHT22;23767;42.024;23.086;2024-01-10T04:07:59;-2.90;99.90
37944;DHT22;23767;42.024;23.086;2024-01-10T04:10:25;-2.90;99.90
37944;DHT22;23767;42.024;23.086;2024-01-10T04:12:50;-2.80;99.90
37944;DHT22;23767;42.024;23.086;2024-01-10T04:15:16;-2.80;99.90
37944;DHT22;23767;42.024;23.086;2024-01-10T04:17:43;-2.80;99.90
37944;DHT22;23767;42.024;23.086;2024-01-10T04:20:09;-2.80;99.90
37944;DHT22;23767;42.024;23.086;2024-01-10T04:22:35;-2.80;99.90
37944;DHT22;23767;42.024;23.086;2024-01-10T04:25:03;-2.80;99.90
37944;DHT22;23767;42.024;23.086;2024-01-10T04:27:30;-2.80;99.90
37944;DHT22;23767;42.024;23.086;2024-01-10T04:29:55;-2.80;99.90
37944;DHT22;23767;42.024;23.086;2024-01-10T04:32:21;-2.80;99.90
37944;DHT22;23767;42.024;23.086;2024-01-10T04:34:47;-2.80;99.90
37944;DHT22;23767;42.024;23.086;2024-01-10T04:37:12;-2.90;99.90
37944;DHT22;23767;42.024;23.086;2024-01-10T04:39:39;-2.90;99.90
37944;DHT22;23767;42.024;23.086;2024-01-10T04:42:05;-2.90;99.90
37944;DHT22;23767;42.024;23.086;2024-01-10T04:44:31;-3.00;99.90
37944;DHT22;23767;42.024;23.086;2024-01-10T04:46:57;-3.00;99.90
37944;DHT22;23767;42.024;23.086;2024-01-10T04:49:23;-3.00;99.90
37944;DHT22;23767;42.024;23.086;2024-01-10T04:51:50;-2.90;99.90
37944;DHT22;23767;42.024;23.086;2024-01-10T04:54:16;-2.80;99.90
37944;DHT22;23767;42.024;23.086;2024-01-10T04:56:41;-2.80;99.90
37944;DHT22;23767;42.024;23.086;2024-01-10T04:59:07;-2.70;99.90
37944;DHT22;23767;42.024;23.086;2024-01-10T05:01:33;-2.60;99.90
37944;DHT22;23767;42.024;23.086;2024-01-10T05:03:58;-2.40;99.90
37944;DHT22;23767;42.024;23.086;2024-01-10T05:06:24;-2.20;99.90
37944;DHT22;23767;42.024;23.086;2024-01-10T05:08:50;-2.10;99.90
37944;DHT22;23767;42.024;23.086;2024-01-10T05:11:16;-2.00;99.90
37944;DHT22;23767;42.024;23.086;2024-01-10T05:13:42;-2.10;99.90
37944;DHT22;23767;42.024;23.086;2024-01-10T05:16:08;-2.20;99.90
37944;DHT22;23767;42.024;23.086;2024-01-10T05:18:34;-2.20;99.90
37944;DHT22;23767;42.024;23.086;2024-01-10T05:21:00;-2.10;99.90
37944;DHT22;23767;42.024;23.086;2024-01-10T05:23:26;-2.20;99.90
37944;DHT22;23767;42.024;23.086;2024-01-10T05:25:52;-2.20;99.90
37944;DHT22;23767;42.024;23.086;2024-01-10T05:28:17;-2.20;99.90
37944;DHT22;23767;42.024;23.086;2024-01-10T05:30:43;-2.10;99.90
37944;DHT22;23767;42.024;23.086;2024-01-10T05:33:09;-2.00;99.90
37944;DHT22;23767;42.024;23.086;2024-01-10T05:35:36;-2.00;99.90
37944;DHT22;23767;42.024;23.086;2024-01-10T05:38:02;-1.80;99.90
37944;DHT22;23767;42.024;23.086;2024-01-10T05:40:28;-1.70;99.90
37944;DHT22;23767;42.024;23.086;2024-01-10T05:42:55;-1.70;99.90
37944;DHT22;23767;42.024;23.086;2024-01-10T05:45:21;-1.60;99.90
37944;DHT22;23767;42.024;23.086;2024-01-10T05:47:47;-1.60;99.90
37944;DHT22;23767;42.024;23.086;2024-01-10T05:50:14;-1.50;99.90
37944;DHT22;23767;42.024;23.086;2024-01-10T05:52:39;-1.50;99.90
37944;DHT22;23767;42.024;23.086;2024-01-10T05:55:06;-1.60;99.90
37944;DHT22;23767;42.024;23.086;2024-01-10T05:57:34;-1.90;99.90
37944;DHT22;23767;42.024;23.086;2024-01-10T06:00:00;-2.10;99.90
37944;DHT22;23767;42.024;23.086;2024-01-10T06:02:26;-2.10;99.90
37944;DHT22;23767;42.024;23.086;2024-01-10T06:04:52;-2.00;99.90
37944;DHT22;23767;42.024;23.086;2024-01-10T06:07:18;-1.90;99.90
37944;DHT22;23767;42.024;23.086;2024-01-10T06:09:44;-1.90;99.90
37944;DHT22;23767;42.024;23.086;2024-01-10T06:12:10;-1.80;99.90
37944;DHT22;23767;42.024;23.086;2024-01-10T06:14:36;-1.70;99.90
37944;DHT22;23767;42.024;23.086;2024-01-10T06:17:02;-1.70;99.90
37944;DHT22;23767;42.024;23.086;2024-01-10T06:19:30;-1.70;99.90
37944;DHT22;23767;42.024;23.086;2024-01-10T06:21:57;-1.60;99.90
37944;DHT22;23767;42.024;23.086;2024-01-10T06:24:22;-1.60;99.90
37944;DHT22;23767;42.024;23.086;2024-01-10T06:26:48;-1.60;99.90
37944;DHT22;23767;42.024;23.086;2024-01-10T06:29:15;-1.50;99.90
37944;DHT22;23767;42.024;23.086;2024-01-10T06:31:41;-1.40;99.90
37944;DHT22;23767;42.024;23.086;2024-01-10T06:34:07;-1.30;99.90
37944;DHT22;23767;42.024;23.086;2024-01-10T06:36:33;-1.20;99.90
37944;DHT22;23767;42.024;23.086;2024-01-10T06:38:58;-1.10;99.90
37944;DHT22;23767;42.024;23.086;2024-01-10T06:41:24;-0.90;99.90
37944;DHT22;23767;42.024;23.086;2024-01-10T06:43:51;-0.90;99.90
37944;DHT22;23767;42.024;23.086;2024-01-10T06:46:17;-0.80;99.90
37944;DHT22;23767;42.024;23.086;2024-01-10T06:48:42;-0.60;99.90
37944;DHT22;23767;42.024;23.086;2024-01-10T06:51:14;-0.50;99.90
37944;DHT22;23767;42.024;23.086;2024-01-10T06:53:40;-0.50;99.90
37944;DHT22;23767;42.024;23.086;2024-01-10T06:56:06;-0.40;99.90
37944;DHT22;23767;42.024;23.086;2024-01-10T06:58:32;-0.30;99.90
37944;DHT22;23767;42.024;23.086;2024-01-10T07:00:59;-0.30;99.90
37944;DHT22;23767;42.024;23.086;2024-01-10T07:03:30;-0.10;99.90
37944;DHT22;23767;42.024;23.086;2024-01-10T07:05:56;-0.10;99.90
37944;DHT22;23767;42.024;23.086;2024-01-10T07:08:22;0.00;99.90
37944;DHT22;23767;42.024;23.086;2024-01-10T07:10:48;0.00;99.90
37944;DHT22;23767;42.024;23.086;2024-01-10T07:13:14;0.10;99.90
37944;DHT22;23767;42.024;23.086;2024-01-10T07:15:39;0.10;99.90
37944;DHT22;23767;42.024;23.086;2024-01-10T07:18:05;0.00;99.90
37944;DHT22;23767;42.024;23.086;2024-01-10T07:20:32;0.00;99.90
37944;DHT22;23767;42.024;23.086;2024-01-10T07:22:58;-0.10;99.90
37944;DHT22;23767;42.024;23.086;2024-01-10T07:25:24;-0.40;99.90
37944;DHT22;23767;42.024;23.086;2024-01-10T07:27:51;-0.40;99.90
37944;DHT22;23767;42.024;23.086;2024-01-10T07:30:17;-0.20;99.90
37944;DHT22;23767;42.024;23.086;2024-01-10T07:32:43;-0.20;99.90
37944;DHT22;23767;42.024;23.086;2024-01-10T07:35:10;-0.30;99.90
37944;DHT22;23767;42.024;23.086;2024-01-10T07:37:40;-0.40;99.90
37944;DHT22;23767;42.024;23.086;2024-01-10T07:40:07;-0.70;99.90
37944;DHT22;23767;42.024;23.086;2024-01-10T07:42:34;-1.00;99.90
37944;DHT22;23767;42.024;23.086;2024-01-10T07:45:00;-1.00;99.90
37944;DHT22;23767;42.024;23.086;2024-01-10T07:47:33;-1.00;99.90
37944;DHT22;23767;42.024;23.086;2024-01-10T07:50:08;-1.00;99.90
37944;DHT22;23767;42.024;23.086;2024-01-10T07:52:35;-0.90;99.90
37944;DHT22;23767;42.024;23.086;2024-01-10T07:55:01;-0.90;99.90
37944;DHT22;23767;42.024;23.086;2024-01-10T07:57:27;-0.90;99.90
37944;DHT22;23767;42.024;23.086;2024-01-10T07:59:53;-0.70;99.90
37944;DHT22;23767;42.024;23.086;2024-01-10T08:02:19;-0.60;99.90
37944;DHT22;23767;42.024;23.086;2024-01-10T08:04:45;-0.60;99.90
37944;DHT22;23767;42.024;23.086;2024-01-10T08:07:10;-0.60;99.90
37944;DHT22;23767;42.024;23.086;2024-01-10T08:09:36;-0.50;99.90
37944;DHT22;23767;42.024;23.086;2024-01-10T08:12:03;-0.50;99.90
37944;DHT22;23767;42.024;23.086;2024-01-10T08:14:29;-0.30;99.90
37944;DHT22;23767;42.024;23.086;2024-01-10T08:16:54;-0.30;99.90
37944;DHT22;23767;42.024;23.086;2024-01-10T08:19:29;-0.20;99.70
37944;DHT22;23767;42.024;23.086;2024-01-10T08:21:55;-0.10;99.80
37944;DHT22;23767;42.024;23.086;2024-01-10T08:24:20;-0.20;99.90
37944;DHT22;23767;42.024;23.086;2024-01-10T08:26:47;-0.20;99.40
37944;DHT22;23767;42.024;23.086;2024-01-10T08:29:17;-0.30;99.90
37944;DHT22;23767;42.024;23.086;2024-01-10T08:31:44;-0.40;99.90
37944;DHT22;23767;42.024;23.086;2024-01-10T08:34:10;-0.40;99.90
37944;DHT22;23767;42.024;23.086;2024-01-10T08:36:36;-0.40;99.90
37944;DHT22;23767;42.024;23.086;2024-01-10T08:39:02;-0.20;99.90
37944;DHT22;23767;42.024;23.086;2024-01-10T08:41:29;-0.30;99.90
37944;DHT22;23767;42.024;23.086;2024-01-10T08:43:55;-0.20;99.90
37944;DHT22;23767;42.024;23.086;2024-01-10T08:46:22;-0.10;99.90
37944;DHT22;23767;42.024;23.086;2024-01-10T08:48:50;-0.10;99.90
37944;DHT22;23767;42.024;23.086;2024-01-10T08:51:15;0.00;99.90
37944;DHT22;23767;42.024;23.086;2024-01-10T08:53:45;0.10;99.90
37944;DHT22;23767;42.024;23.086;2024-01-10T08:56:10;0.20;99.50
37944;DHT22;23767;42.024;23.086;2024-01-10T08:58:37;0.30;99.20
37944;DHT22;23767;42.024;23.086;2024-01-10T09:01:04;0.20;98.00
37944;DHT22;23767;42.024;23.086;2024-01-10T09:03:33;0.10;98.80
37944;DHT22;23767;42.024;23.086;2024-01-10T09:05:59;0.10;99.00
37944;DHT22;23767;42.024;23.086;2024-01-10T09:08:25;0.20;99.10
37944;DHT22;23767;42.024;23.086;2024-01-10T09:10:51;0.20;99.50
37944;DHT22;23767;42.024;23.086;2024-01-10T09:13:16;0.40;99.50
37944;DHT22;23767;42.024;23.086;2024-01-10T09:15:42;0.60;98.60
37944;DHT22;23767;42.024;23.086;2024-01-10T09:18:08;0.80;98.50
37944;DHT22;23767;42.024;23.086;2024-01-10T09:20:34;1.00;98.20
37944;DHT22;23767;42.024;23.086;2024-01-10T09:23:01;1.10;97.00
37944;DHT22;23767;42.024;23.086;2024-01-10T09:25:27;0.80;97.00
37944;DHT22;23767;42.024;23.086;2024-01-10T09:27:53;0.50;97.90
37944;DHT22;23767;42.024;23.086;2024-01-10T09:30:19;0.30;98.10
37944;DHT22;23767;42.024;23.086;2024-01-10T09:32:45;0.20;98.30
37944;DHT22;23767;42.024;23.086;2024-01-10T09:35:11;0.20;98.50
37944;DHT22;23767;42.024;23.086;2024-01-10T09:37:38;0.20;98.90
37944;DHT22;23767;42.024;23.086;2024-01-10T09:40:04;0.10;99.30
37944;DHT22;23767;42.024;23.086;2024-01-10T09:42:32;-0.10;99.30
37944;DHT22;23767;42.024;23.086;2024-01-10T09:45:01;-0.10;99.90
37944;DHT22;23767;42.024;23.086;2024-01-10T09:47:28;0.00;99.90
37944;DHT22;23767;42.024;23.086;2024-01-10T09:49:56;-0.10;99.90
37944;DHT22;23767;42.024;23.086;2024-01-10T09:52:27;0.00;99.90
37944;DHT22;23767;42.024;23.086;2024-01-10T09:54:57;0.10;99.90
37944;DHT22;23767;42.024;23.086;2024-01-10T09:57:26;0.10;99.90
37944;DHT22;23767;42.024;23.086;2024-01-10T09:59:52;0.00;99.90
37944;DHT22;23767;42.024;23.086;2024-01-10T10:02:19;0.00;99.90
37944;DHT22;23767;42.024;23.086;2024-01-10T10:05:02;-0.10;99.90
37944;DHT22;23767;42.024;23.086;2024-01-10T10:07:29;-0.10;99.90
37944;DHT22;23767;42.024;23.086;2024-01-10T10:09:55;0.10;99.90
37944;DHT22;23767;42.024;23.086;2024-01-10T10:12:50;0.00;99.90
37944;DHT22;23767;42.024;23.086;2024-01-10T10:15:19;0.10;99.70
37944;DHT22;23767;42.024;23.086;2024-01-10T10:17:48;0.20;99.50
37944;DHT22;23767;42.024;23.086;2024-01-10T10:20:43;0.10;99.90
37944;DHT22;23767;42.024;23.086;2024-01-10T10:23:09;-0.10;99.90
37944;DHT22;23767;42.024;23.086;2024-01-10T10:25:45;0.00;99.90
37944;DHT22;23767;42.024;23.086;2024-01-10T10:28:11;0.10;99.70
37944;DHT22;23767;42.024;23.086;2024-01-10T10:30:37;0.10;99.90
37944;DHT22;23767;42.024;23.086;2024-01-10T10:33:04;0.00;99.80
37944;DHT22;23767;42.024;23.086;2024-01-10T10:35:29;0.10;99.70
37944;DHT22;23767;42.024;23.086;2024-01-10T10:37:58;0.20;99.40
37944;DHT22;23767;42.024;23.086;2024-01-10T10:40:24;0.10;99.30
37944;DHT22;23767;42.024;23.086;2024-01-10T10:42:55;0.20;99.10
37944;DHT22;23767;42.024;23.086;2024-01-10T10:45:22;0.50;98.90
37944;DHT22;23767;42.024;23.086;2024-01-10T10:48:01;0.50;98.70
37944;DHT22;23767;42.024;23.086;2024-01-10T10:50:33;0.50;98.40
37944;DHT22;23767;42.024;23.086;2024-01-10T10:53:02;0.50;98.80
37944;DHT22;23767;42.024;23.086;2024-01-10T10:55:29;0.40;98.80
37944;DHT22;23767;42.024;23.086;2024-01-10T10:57:56;0.30;98.20
37944;DHT22;23767;42.024;23.086;2024-01-10T11:00:22;0.30;98.70
37944;DHT22;23767;42.024;23.086;2024-01-10T11:02:53;0.40;98.70
37944;DHT22;23767;42.024;23.086;2024-01-10T11:05:20;0.50;98.70
37944;DHT22;23767;42.024;23.086;2024-01-10T11:07:47;0.50;98.40
37944;DHT22;23767;42.024;23.086;2024-01-10T11:10:23;0.60;98.70
37944;DHT22;23767;42.024;23.086;2024-01-10T11:23:44;0.90;98.50
37944;DHT22;23767;42.024;23.086;2024-01-10T11:26:11;0.80;99.20
37944;DHT22;23767;42.024;23.086;2024-01-10T11:28:39;0.80;98.60
37944;DHT22;23767;42.024;23.086;2024-01-10T11:31:06;0.90;99.40
37944;DHT22;23767;42.024;23.086;2024-01-10T11:33:35;1.00;99.40
37944;DHT22;23767;42.024;23.086;2024-01-10T11:36:18;1.10;98.30
37944;DHT22;23767;42.024;23.086;2024-01-10T11:38:54;1.00;98.70
37944;DHT22;23767;42.024;23.086;2024-01-10T11:41:33;0.90;98.70
37944;DHT22;23767;42.024;23.086;2024-01-10T11:46:40;1.00;98.90
37944;DHT22;23767;42.024;23.086;2024-01-10T11:49:09;1.10;98.90
37944;DHT22;23767;42.024;23.086;2024-01-10T11:51:38;1.10;98.90
37944;DHT22;23767;42.024;23.086;2024-01-10T11:54:04;1.10;99.40
37944;DHT22;23767;42.024;23.086;2024-01-10T11:56:41;1.20;98.60
37944;DHT22;23767;42.024;23.086;2024-01-10T11:59:08;1.30;99.30
37944;DHT22;23767;42.024;23.086;2024-01-10T12:01:36;1.30;98.70
37944;DHT22;23767;42.024;23.086;2024-01-10T12:04:03;1.20;98.30
37944;DHT22;23767;42.024;23.086;2024-01-10T12:06:30;1.30;98.70
37944;DHT22;23767;42.024;23.086;2024-01-10T12:08:56;1.30;98.20
37944;DHT22;23767;42.024;23.086;2024-01-10T12:11:23;1.30;98.50
37944;DHT22;23767;42.024;23.086;2024-01-10T12:13:49;1.40;99.10
37944;DHT22;23767;42.024;23.086;2024-01-10T12:16:15;1.50;98.50
37944;DHT22;23767;42.024;23.086;2024-01-10T12:18:42;1.40;98.90
37944;DHT22;23767;42.024;23.086;2024-01-10T12:21:08;1.40;99.20
37944;DHT22;23767;42.024;23.086;2024-01-10T12:23:38;1.30;98.80
37944;DHT22;23767;42.024;23.086;2024-01-10T12:26:09;1.40;99.10
37944;DHT22;23767;42.024;23.086;2024-01-10T12:28:38;1.60;99.30
37944;DHT22;23767;42.024;23.086;2024-01-10T12:31:05;1.70;99.40
37944;DHT22;23767;42.024;23.086;2024-01-10T12:33:33;1.70;99.60
37944;DHT22;23767;42.024;23.086;2024-01-10T12:36:07;1.80;99.40
37944;DHT22;23767;42.024;23.086;2024-01-10T12:38:33;1.80;98.50
37944;DHT22;23767;42.024;23.086;2024-01-10T12:40:59;1.80;98.60
37944;DHT22;23767;42.024;23.086;2024-01-10T12:43:26;1.80;99.30
37944;DHT22;23767;42.024;23.086;2024-01-10T12:46:08;1.90;99.20
37944;DHT22;23767;42.024;23.086;2024-01-10T12:48:38;1.90;98.30
37944;DHT22;23767;42.024;23.086;2024-01-10T12:51:11;2.00;98.40
37944;DHT22;23767;42.024;23.086;2024-01-10T12:56:06;2.10;98.80
37944;DHT22;23767;42.024;23.086;2024-01-10T12:58:33;2.00;98.60
37944;DHT22;23767;42.024;23.086;2024-01-10T13:01:00;1.90;98.40
37944;DHT22;23767;42.024;23.086;2024-01-10T13:03:26;1.90;99.20
37944;DHT22;23767;42.024;23.086;2024-01-10T13:05:51;2.00;99.40
37944;DHT22;23767;42.024;23.086;2024-01-10T13:08:18;2.10;99.10
37944;DHT22;23767;42.024;23.086;2024-01-10T13:10:45;2.10;98.40
37944;DHT22;23767;42.024;23.086;2024-01-10T13:13:11;2.20;98.70
37944;DHT22;23767;42.024;23.086;2024-01-10T13:15:37;2.20;98.50
37944;DHT22;23767;42.024;23.086;2024-01-10T13:18:03;2.20;99.30
37944;DHT22;23767;42.024;23.086;2024-01-10T13:20:29;2.20;99.30
37944;DHT22;23767;42.024;23.086;2024-01-10T13:22:54;2.30;98.90
37944;DHT22;23767;42.024;23.086;2024-01-10T13:25:20;2.30;98.90
37944;DHT22;23767;42.024;23.086;2024-01-10T13:27:52;2.20;98.70
37944;DHT22;23767;42.024;23.086;2024-01-10T13:30:18;2.20;99.00
37944;DHT22;23767;42.024;23.086;2024-01-10T13:32:45;2.30;99.10
37944;DHT22;23767;42.024;23.086;2024-01-10T13:35:13;2.30;98.90
37944;DHT22;23767;42.024;23.086;2024-01-10T13:37:39;2.40;98.70
37944;DHT22;23767;42.024;23.086;2024-01-10T13:40:07;2.50;98.30
37944;DHT22;23767;42.024;23.086;2024-01-10T13:42:32;2.50;98.10
37944;DHT22;23767;42.024;23.086;2024-01-10T13:44:58;2.50;98.00
37944;DHT22;23767;42.024;23.086;2024-01-10T13:47:24;2.50;98.60
37944;DHT22;23767;42.024;23.086;2024-01-10T13:49:49;2.50;98.60
37944;DHT22;23767;42.024;23.086;2024-01-10T13:52:15;2.50;99.40
37944;DHT22;23767;42.024;23.086;2024-01-10T13:54:41;2.40;99.00
37944;DHT22;23767;42.024;23.086;2024-01-10T13:57:08;2.50;99.20
37944;DHT22;23767;42.024;23.086;2024-01-10T13:59:33;2.60;99.00
37944;DHT22;23767;42.024;23.086;2024-01-10T14:01:59;2.60;98.60
37944;DHT22;23767;42.024;23.086;2024-01-10T14:04:25;2.60;99.00
37944;DHT22;23767;42.024;23.086;2024-01-10T14:06:51;2.60;98.90
37944;DHT22;23767;42.024;23.086;2024-01-10T14:09:16;2.70;98.90
37944;DHT22;23767;42.024;23.086;2024-01-10T14:11:43;2.60;98.80
37944;DHT22;23767;42.024;23.086;2024-01-10T14:14:10;2.60;99.30
37944;DHT22;23767;42.024;23.086;2024-01-10T14:16:36;2.60;99.50
37944;DHT22;23767;42.024;23.086;2024-01-10T14:19:02;2.60;99.50
37944;DHT22;23767;42.024;23.086;2024-01-10T14:21:27;2.70;99.00
37944;DHT22;23767;42.024;23.086;2024-01-10T14:23:53;2.70;99.10
37944;DHT22;23767;42.024;23.086;2024-01-10T14:26:19;2.70;99.30
37944;DHT22;23767;42.024;23.086;2024-01-10T14:28:44;2.60;99.40
37944;DHT22;23767;42.024;23.086;2024-01-10T14:31:10;2.60;99.50
37944;DHT22;23767;42.024;23.086;2024-01-10T14:33:39;2.50;99.70
37944;DHT22;23767;42.024;23.086;2024-01-10T14:36:05;2.60;99.80
37944;DHT22;23767;42.024;23.086;2024-01-10T14:38:31;2.60;99.70
37944;DHT22;23767;42.024;23.086;2024-01-10T14:40:57;2.60;99.90
37944;DHT22;23767;42.024;23.086;2024-01-10T14:43:24;2.50;99.90
37944;DHT22;23767;42.024;23.086;2024-01-10T14:45:49;2.50;99.90
37944;DHT22;23767;42.024;23.086;2024-01-10T14:48:15;2.60;99.90
37944;DHT22;23767;42.024;23.086;2024-01-10T14:50:41;2.50;99.90
37944;DHT22;23767;42.024;23.086;2024-01-10T14:53:06;2.60;99.90
37944;DHT22;23767;42.024;23.086;2024-01-10T14:55:33;2.70;99.90
37944;DHT22;23767;42.024;23.086;2024-01-10T14:57:59;2.70;99.90
37944;DHT22;23767;42.024;23.086;2024-01-10T15:00:25;2.70;99.90
37944;DHT22;23767;42.024;23.086;2024-01-10T15:02:50;2.70;99.90
37944;DHT22;23767;42.024;23.086;2024-01-10T15:05:16;2.70;99.90
37944;DHT22;23767;42.024;23.086;2024-01-10T15:07:43;2.70;99.90
37944;DHT22;23767;42.024;23.086;2024-01-10T15:10:09;2.60;99.90
37944;DHT22;23767;42.024;23.086;2024-01-10T15:12:34;2.50;99.90
37944;DHT22;23767;42.024;23.086;2024-01-10T15:15:00;2.40;99.90
37944;DHT22;23767;42.024;23.086;2024-01-10T15:17:27;2.30;99.90
37944;DHT22;23767;42.024;23.086;2024-01-10T15:19:52;2.30;99.90
37944;DHT22;23767;42.024;23.086;2024-01-10T15:22:18;2.30;99.90
37944;DHT22;23767;42.024;23.086;2024-01-10T15:24:44;2.20;99.90
37944;DHT22;23767;42.024;23.086;2024-01-10T15:27:10;2.20;99.90
37944;DHT22;23767;42.024;23.086;2024-01-10T15:29:39;2.30;99.90
37944;DHT22;23767;42.024;23.086;2024-01-10T15:32:05;2.30;99.90
37944;DHT22;23767;42.024;23.086;2024-01-10T15:34:31;2.30;99.90
37944;DHT22;23767;42.024;23.086;2024-01-10T15:36:57;2.30;99.90